Time,TemperatureF,DewpointF,PressureIn,WindDirection,WindDirectionDegrees,WindSpeedMPH,WindSpeedGustMPH,Humidity,HourlyPrecipIn,Conditions,Clouds,dailyrainin,SolarRadiationWatts/m^2,SoftwareType,DateUTC
2013-05-20 00:00:00,48.8,40.9,29.87,NE,51,0.0,1.0,74,0.00,,,0.03,0,Wunderground v.1.15,2013-05-20 06:00:00,
2013-05-20 00:05:00,48.4,39.8,29.87,NE,51,0.0,1.0,72,0.00,,,0.03,0,Wunderground v.1.15,2013-05-20 06:05:00,
2013-05-20 00:15:00,48.5,40.6,29.87,NE,51,0.0,1.0,74,0.00,,,0.03,0,Wunderground v.1.15,2013-05-20 06:15:00,
2013-05-20 00:20:00,48.2,39.6,29.87,NE,51,0.0,0.0,72,0.00,,,0.03,0,Wunderground v.1.15,2013-05-20 06:20:00,
2013-05-20 00:30:00,48.4,40.1,29.86,NE,51,0.0,0.0,73,0.00,,,0.00,0,Wunderground v.1.15,2013-05-20 06:30:00,
2013-05-20 00:35:00,48.0,39.4,29.86,NE,51,0.0,0.0,72,0.00,,,0.00,0,Wunderground v.1.15,2013-05-20 06:35:00,
2013-05-20 00:45:00,47.7,38.8,29.86,NE,50,0.0,1.0,71,0.00,,,0.00,0,Wunderground v.1.15,2013-05-20 06:45:00,
2013-05-20 00:50:00,47.4,38.8,29.86,NE,50,0.0,1.0,72,0.00,,,0.00,0,Wunderground v.1.15,2013-05-20 06:50:00,
2013-05-20 00:55:00,47.2,39.0,29.86,NE,50,0.0,1.0,73,0.00,,,0.00,0,Wunderground v.1.15,2013-05-20 06:55:00,
2013-05-20 01:00:00,47.1,39.2,29.86,NE,50,0.0,1.0,74,0.00,,,0.00,0,Wunderground v.1.15,2013-05-20 07:00:00,
2013-05-20 01:10:00,46.4,38.6,29.86,NE,50,0.0,1.0,74,0.00,,,0.00,0,Wunderground v.1.15,2013-05-20 07:10:00,
2013-05-20 01:20:00,46.1,38.6,29.86,NE,51,0.0,1.0,75,0.00,,,0.00,0,Wunderground v.1.15,2013-05-20 07:20:00,
2013-05-20 01:30:00,45.5,38.4,29.86,NE,51,0.0,1.0,76,0.00,,,0.00,0,Wunderground v.1.15,2013-05-20 07:30:00,
2013-05-20 01:40:00,45.6,39.1,29.86,NE,50,0.0,1.0,78,0.00,,,0.00,0,Wunderground v.1.15,2013-05-20 07:40:00,
2013-05-20 01:50:00,45.6,39.5,29.86,NE,51,0.0,1.0,79,0.00,,,0.00,0,Wunderground v.1.15,2013-05-20 07:50:00,
2013-05-20 02:00:00,45.6,39.5,29.87,NE,51,0.0,1.0,79,0.00,,,0.00,0,Wunderground v.1.15,2013-05-20 08:00:00,
2013-05-20 02:10:00,45.4,38.9,29.86,NE,51,0.0,1.0,78,0.00,,,0.00,0,Wunderground v.1.15,2013-05-20 08:10:00,
2013-05-20 02:20:00,46.3,39.1,29.86,NE,50,0.0,1.0,76,0.00,,,0.00,0,Wunderground v.1.15,2013-05-20 08:20:00,
2013-05-20 02:30:00,47.0,39.5,29.86,NE,50,0.0,1.0,75,0.00,,,0.00,0,Wunderground v.1.15,2013-05-20 08:30:00,
2013-05-20 02:40:00,47.3,40.1,29.86,NE,51,0.0,1.0,76,0.00,,,0.00,0,Wunderground v.1.15,2013-05-20 08:40:00,
2013-05-20 02:45:00,47.2,40.0,29.86,NE,51,1.0,3.0,76,0.00,,,0.00,0,Wunderground v.1.15,2013-05-20 08:45:00,
2013-05-20 02:55:00,46.8,40.0,29.86,NE,51,1.0,1.0,77,0.00,,,0.00,0,Wunderground v.1.15,2013-05-20 08:55:00,
2013-05-20 03:05:00,46.9,40.4,29.86,NE,50,0.0,1.0,78,0.00,,,0.00,0,Wunderground v.1.15,2013-05-20 09:05:00,
2013-05-20 03:15:00,47.1,40.6,29.86,NE,50,0.0,0.0,78,0.00,,,0.00,0,Wunderground v.1.15,2013-05-20 09:15:00,
2013-05-20 03:20:00,47.1,40.6,29.86,NE,51,0.0,0.0,78,0.00,,,0.00,0,Wunderground v.1.15,2013-05-20 09:20:00,
2013-05-20 03:30:00,47.0,40.5,29.86,NE,51,0.0,0.0,78,0.00,,,0.00,0,Wunderground v.1.15,2013-05-20 09:30:00,
2013-05-20 03:40:00,46.7,40.5,29.86,NE,50,0.0,2.0,79,0.00,,,0.00,0,Wunderground v.1.15,2013-05-20 09:40:00,
2013-05-20 03:50:00,46.5,40.7,29.86,NE,51,0.0,2.0,80,0.00,,,0.00,0,Wunderground v.1.15,2013-05-20 09:50:00,
2013-05-20 04:00:00,45.7,39.6,29.86,NE,51,0.0,2.0,79,0.00,,,0.00,0,Wunderground v.1.15,2013-05-20 10:00:00,
2013-05-20 04:05:00,45.4,39.6,29.86,NE,50,0.0,2.0,80,0.00,,,0.00,0,Wunderground v.1.15,2013-05-20 10:05:00,
2013-05-20 04:10:00,45.1,39.0,29.86,NE,51,0.0,2.0,79,0.00,,,0.00,0,Wunderground v.1.15,2013-05-20 10:10:00,
2013-05-20 04:20:00,44.8,39.0,29.86,NE,50,0.0,2.0,80,0.00,,,0.00,0,Wunderground v.1.15,2013-05-20 10:20:00,
2013-05-20 04:25:00,44.6,38.8,29.86,NE,51,0.0,2.0,80,0.00,,,0.00,0,Wunderground v.1.15,2013-05-20 10:25:00,
2013-05-20 04:35:00,44.5,39.0,29.87,NE,51,0.0,2.0,81,0.00,,,0.00,0,Wunderground v.1.15,2013-05-20 10:35:00,
2013-05-20 04:45:00,44.4,39.2,29.87,NE,50,0.0,2.0,82,0.00,,,0.00,0,Wunderground v.1.15,2013-05-20 10:45:00,
2013-05-20 04:50:00,44.3,38.8,29.87,NE,51,0.0,2.0,81,0.00,,,0.00,0,Wunderground v.1.15,2013-05-20 10:50:00,
2013-05-20 05:00:00,44.4,38.9,29.87,NE,50,0.0,2.0,81,0.00,,,0.00,0,Wunderground v.1.15,2013-05-20 11:00:00,
2013-05-20 05:05:00,44.5,39.0,29.87,NE,50,0.0,2.0,81,0.00,,,0.00,0,Wunderground v.1.15,2013-05-20 11:05:00,
2013-05-20 05:15:00,44.9,39.4,29.87,NE,50,0.0,2.0,81,0.00,,,0.00,0,Wunderground v.1.15,2013-05-20 11:15:00,
2013-05-20 05:25:00,44.8,39.0,29.88,NE,50,0.0,2.0,80,0.00,,,0.00,0,Wunderground v.1.15,2013-05-20 11:25:00,
2013-05-20 05:30:00,44.6,38.8,29.88,NE,50,0.0,2.0,80,0.00,,,0.00,0,Wunderground v.1.15,2013-05-20 11:30:00,
2013-05-20 05:35:00,44.6,38.8,29.88,NE,51,0.0,2.0,80,0.00,,,0.00,0,Wunderground v.1.15,2013-05-20 11:35:00,
2013-05-20 05:45:00,44.6,38.8,29.89,NE,51,0.0,2.0,80,0.00,,,0.00,0,Wunderground v.1.15,2013-05-20 11:45:00,
2013-05-20 05:55:00,45.0,39.2,29.89,NE,51,0.0,2.0,80,0.00,,,0.00,0,Wunderground v.1.15,2013-05-20 11:55:00,
2013-05-20 06:00:00,45.0,39.2,29.89,NE,51,0.0,2.0,80,0.00,,,0.00,0,Wunderground v.1.15,2013-05-20 12:00:00,
2013-05-20 06:05:00,45.1,39.0,29.89,NE,50,0.0,2.0,79,0.00,,,0.00,0,Wunderground v.1.15,2013-05-20 12:05:00,
2013-05-20 06:15:00,44.9,38.5,29.90,NE,51,0.0,0.0,78,0.00,,,0.00,9,Wunderground v.1.15,2013-05-20 12:15:00,
2013-05-20 06:20:00,44.9,38.5,29.90,NE,51,0.0,0.0,78,0.00,,,0.00,9,Wunderground v.1.15,2013-05-20 12:20:00,
2013-05-20 06:25:00,45.2,39.1,29.90,ENE,68,0.0,0.0,79,0.00,,,0.00,14,Wunderground v.1.15,2013-05-20 12:25:00,
2013-05-20 06:35:00,45.2,38.7,29.90,ENE,68,0.0,0.0,78,0.00,,,0.00,23,Wunderground v.1.15,2013-05-20 12:35:00,
2013-05-20 06:45:00,45.7,39.6,29.90,ENE,68,0.0,1.0,79,0.00,,,0.00,37,Wunderground v.1.15,2013-05-20 12:45:00,
2013-05-20 06:55:00,45.5,39.0,29.90,ENE,69,0.0,1.0,78,0.00,,,0.00,54,Wunderground v.1.15,2013-05-20 12:55:00,
2013-05-20 07:05:00,45.7,39.2,29.90,ENE,69,0.0,1.0,78,0.00,,,0.00,69,Wunderground v.1.15,2013-05-20 13:05:00,
2013-05-20 07:10:00,45.8,39.0,29.90,ENE,68,0.0,1.0,77,0.00,,,0.00,70,Wunderground v.1.15,2013-05-20 13:10:00,
2013-05-20 07:20:00,46.0,38.9,29.90,ENE,69,0.0,1.0,76,0.00,,,0.00,95,Wunderground v.1.15,2013-05-20 13:20:00,
2013-05-20 07:25:00,46.1,39.0,29.90,ENE,68,0.0,1.0,76,0.00,,,0.00,105,Wunderground v.1.15,2013-05-20 13:25:00,
2013-05-20 07:35:00,46.5,39.3,29.90,ENE,68,0.0,1.0,76,0.00,,,0.00,100,Wunderground v.1.15,2013-05-20 13:35:00,
2013-05-20 07:45:00,46.8,39.6,29.90,ENE,69,0.0,1.0,76,0.00,,,0.00,113,Wunderground v.1.15,2013-05-20 13:45:00,
2013-05-20 07:55:00,46.9,39.4,29.90,ENE,68,0.0,1.0,75,0.00,,,0.00,128,Wunderground v.1.15,2013-05-20 13:55:00,
2013-05-20 08:00:00,47.0,39.5,29.91,ENE,68,0.0,1.0,75,0.00,,,0.00,130,Wunderground v.1.15,2013-05-20 14:00:00,
2013-05-20 08:10:00,47.2,39.7,29.90,ENE,69,0.0,1.0,75,0.00,,,0.00,113,Wunderground v.1.15,2013-05-20 14:10:00,
2013-05-20 08:15:00,47.6,40.1,29.90,ENE,69,0.0,1.0,75,0.00,,,0.00,111,Wunderground v.1.15,2013-05-20 14:15:00,
2013-05-20 08:25:00,48.0,40.5,29.90,ENE,70,0.0,1.0,75,0.00,,,0.00,113,Wunderground v.1.15,2013-05-20 14:25:00,
2013-05-20 08:30:00,48.0,40.1,29.91,ENE,70,0.0,1.0,74,0.00,,,0.00,123,Wunderground v.1.15,2013-05-20 14:30:00,
2013-05-20 08:35:00,48.2,40.3,29.91,ENE,70,0.0,1.0,74,0.00,,,0.00,156,Wunderground v.1.15,2013-05-20 14:35:00,
2013-05-20 08:40:00,48.4,40.5,29.91,SSW,213,0.0,1.0,74,0.00,,,0.00,146,Wunderground v.1.15,2013-05-20 14:40:00,
2013-05-20 08:45:00,48.7,40.4,29.90,SSE,149,0.0,1.0,73,0.00,,,0.00,155,Wunderground v.1.15,2013-05-20 14:45:00,
2013-05-20 08:55:00,49.1,40.5,29.91,West,275,0.0,1.0,72,0.00,,,0.00,192,Wunderground v.1.15,2013-05-20 14:55:00,
2013-05-20 09:05:00,49.8,41.1,29.90,ENE,57,1.0,1.0,72,0.00,,,0.00,186,Wunderground v.1.15,2013-05-20 15:05:00,
2013-05-20 09:15:00,50.6,40.8,29.90,East,84,0.0,1.0,69,0.00,,,0.00,237,Wunderground v.1.15,2013-05-20 15:15:00,
2013-05-20 09:20:00,50.8,40.6,29.90,NE,34,1.0,3.0,68,0.00,,,0.00,223,Wunderground v.1.15,2013-05-20 15:20:00,
2013-05-20 09:30:00,51.4,41.2,29.90,NE,52,0.0,0.0,68,0.00,,,0.00,190,Wunderground v.1.15,2013-05-20 15:30:00,
2013-05-20 09:40:00,51.6,40.6,29.90,West,264,0.0,4.0,66,0.00,,,0.00,174,Wunderground v.1.15,2013-05-20 15:40:00,
2013-05-20 09:50:00,51.9,40.5,29.90,SSW,203,1.0,1.0,65,0.00,,,0.00,230,Wunderground v.1.15,2013-05-20 15:50:00,
2013-05-20 10:00:00,52.3,40.1,29.90,SSW,206,1.0,1.0,63,0.00,,,0.00,265,Wunderground v.1.15,2013-05-20 16:00:00,
2013-05-20 10:05:00,52.5,40.3,29.90,South,191,1.0,3.0,63,0.00,,,0.00,244,Wunderground v.1.15,2013-05-20 16:05:00,
2013-05-20 10:15:00,52.7,40.5,29.90,WNW,289,1.0,4.0,63,0.00,,,0.00,345,Wunderground v.1.15,2013-05-20 16:15:00,
2013-05-20 10:25:00,53.0,41.5,29.90,SSW,199,1.0,4.0,65,0.00,,,0.00,308,Wunderground v.1.15,2013-05-20 16:25:00,
2013-05-20 10:30:00,52.4,41.4,29.90,ENE,65,1.0,1.0,66,0.00,,,0.00,352,Wunderground v.1.15,2013-05-20 16:30:00,
2013-05-20 10:40:00,52.4,41.0,29.90,NNW,328,0.0,4.0,65,0.00,,,0.00,413,Wunderground v.1.15,2013-05-20 16:40:00,
2013-05-20 10:50:00,53.1,41.2,29.90,SW,216,1.0,4.0,64,0.00,,,0.00,309,Wunderground v.1.15,2013-05-20 16:50:00,
2013-05-20 11:00:00,52.8,42.9,29.91,WSW,238,2.0,5.0,69,0.00,,,0.00,195,Wunderground v.1.15,2013-05-20 17:00:00,
2013-05-20 11:05:00,51.8,43.1,29.91,SW,230,3.0,5.0,72,0.00,,,0.00,139,Wunderground v.1.15,2013-05-20 17:05:00,
2013-05-20 11:10:00,51.1,43.4,29.91,SSW,210,3.0,3.0,75,0.00,,,0.00,188,Wunderground v.1.15,2013-05-20 17:10:00,
2013-05-20 11:20:00,50.8,43.5,29.91,ESE,107,0.0,4.0,76,0.00,,,0.00,257,Wunderground v.1.15,2013-05-20 17:20:00,
2013-05-20 11:25:00,50.4,42.4,29.91,South,188,1.0,4.0,74,0.00,,,0.00,378,Wunderground v.1.15,2013-05-20 17:25:00,
2013-05-20 11:35:00,51.5,43.1,29.90,West,270,1.0,4.0,73,0.00,,,0.00,814,Wunderground v.1.15,2013-05-20 17:35:00,
2013-05-20 11:40:00,53.1,43.6,29.90,South,185,1.0,4.0,70,0.00,,,0.00,882,Wunderground v.1.15,2013-05-20 17:40:00,
2013-05-20 11:50:00,54.5,43.4,29.89,SSE,156,1.0,1.0,66,0.00,,,0.00,988,Wunderground v.1.15,2013-05-20 17:50:00,
2013-05-20 11:55:00,54.7,42.8,29.89,SSW,210,2.0,2.0,64,0.00,,,0.00,946,Wunderground v.1.15,2013-05-20 17:55:00,
2013-05-20 12:05:00,56.2,42.5,29.89,SSW,201,2.0,2.0,60,0.00,,,0.00,570,Wunderground v.1.15,2013-05-20 18:05:00,
2013-05-20 12:15:00,55.0,41.8,29.89,SSW,205,6.0,6.0,61,0.00,,,0.00,1074,Wunderground v.1.15,2013-05-20 18:15:00,
2013-05-20 12:25:00,56.0,41.9,29.89,SW,214,4.0,5.0,59,0.00,,,0.00,974,Wunderground v.1.15,2013-05-20 18:25:00,
2013-05-20 12:35:00,57.0,41.0,29.88,NW,324,3.0,6.0,55,0.00,,,0.00,898,Wunderground v.1.15,2013-05-20 18:35:00,
2013-05-20 12:40:00,56.8,40.8,29.88,WSW,251,4.0,4.0,55,0.00,,,0.00,981,Wunderground v.1.15,2013-05-20 18:40:00,
2013-05-20 12:50:00,57.1,41.1,29.89,West,272,5.0,5.0,55,0.00,,,0.00,1090,Wunderground v.1.15,2013-05-20 18:50:00,
2013-05-20 12:55:00,57.5,43.3,29.88,West,264,4.0,7.0,59,0.00,,,0.00,1021,Wunderground v.1.15,2013-05-20 18:55:00,
2013-05-20 13:00:00,57.1,42.5,29.88,SSW,209,3.0,7.0,58,0.00,,,0.00,1121,Wunderground v.1.15,2013-05-20 19:00:00,
2013-05-20 13:05:00,57.4,41.4,29.88,SSW,212,4.0,7.0,55,0.00,,,0.00,1172,Wunderground v.1.15,2013-05-20 19:05:00,
2013-05-20 13:15:00,57.9,40.9,29.88,WSW,241,6.0,6.0,53,0.00,,,0.00,1102,Wunderground v.1.15,2013-05-20 19:15:00,
2013-05-20 13:25:00,57.2,45.9,29.88,SSE,168,3.0,7.0,66,0.00,,,0.00,691,Wunderground v.1.15,2013-05-20 19:25:00,
2013-05-20 13:35:00,57.3,43.1,29.88,WSW,251,2.0,3.0,59,0.00,,,0.00,708,Wunderground v.1.15,2013-05-20 19:35:00,
2013-05-20 13:45:00,58.2,41.1,29.87,West,261,5.0,7.0,53,0.00,,,0.00,868,Wunderground v.1.15,2013-05-20 19:45:00,
2013-05-20 13:55:00,59.2,41.1,29.87,WSW,241,4.0,7.0,51,0.00,,,0.00,898,Wunderground v.1.15,2013-05-20 19:55:00,
2013-05-20 14:05:00,59.5,40.8,29.87,SW,221,4.0,7.0,50,0.00,,,0.00,935,Wunderground v.1.15,2013-05-20 20:05:00,
2013-05-20 14:15:00,61.0,40.6,29.86,SW,232,3.0,9.0,47,0.00,,,0.00,1007,Wunderground v.1.15,2013-05-20 20:15:00,
2013-05-20 14:25:00,61.2,39.7,29.86,SW,216,4.0,9.0,45,0.00,,,0.00,928,Wunderground v.1.15,2013-05-20 20:25:00,
2013-05-20 14:35:00,60.9,40.5,29.86,SSW,210,9.0,9.0,47,0.00,,,0.00,895,Wunderground v.1.15,2013-05-20 20:35:00,
2013-05-20 14:40:00,60.4,39.5,29.86,SW,218,8.0,11.0,46,0.00,,,0.00,835,Wunderground v.1.15,2013-05-20 20:40:00,
2013-05-20 14:50:00,62.1,40.5,29.86,SSW,210,3.0,3.0,45,0.00,,,0.00,441,Wunderground v.1.15,2013-05-20 20:50:00,
2013-05-20 15:00:00,61.7,39.0,29.86,SW,220,4.0,4.0,43,0.00,,,0.00,350,Wunderground v.1.15,2013-05-20 21:00:00,
2013-05-20 15:05:00,61.0,39.5,29.86,SSE,147,4.0,4.0,45,0.00,,,0.00,322,Wunderground v.1.15,2013-05-20 21:05:00,
2013-05-20 15:15:00,60.4,37.8,29.86,WSW,239,2.0,3.0,43,0.00,,,0.00,575,Wunderground v.1.15,2013-05-20 21:15:00,
2013-05-20 15:20:00,59.7,38.9,29.86,SW,221,2.0,2.0,46,0.00,,,0.00,373,Wunderground v.1.15,2013-05-20 21:20:00,
2013-05-20 15:30:00,60.8,37.5,29.86,SW,217,2.0,5.0,42,0.00,,,0.00,454,Wunderground v.1.15,2013-05-20 21:30:00,
2013-05-20 15:40:00,61.8,36.6,29.86,SW,220,6.0,6.0,39,0.00,,,0.00,529,Wunderground v.1.15,2013-05-20 21:40:00,
2013-05-20 15:50:00,61.9,33.9,29.86,SW,222,6.0,6.0,35,0.00,,,0.00,468,Wunderground v.1.15,2013-05-20 21:50:00,
2013-05-20 16:00:00,61.8,35.2,29.86,West,280,5.0,5.0,37,0.00,,,0.00,418,Wunderground v.1.15,2013-05-20 22:00:00,
2013-05-20 16:05:00,61.6,35.1,29.86,SW,216,5.0,8.0,37,0.00,,,0.00,345,Wunderground v.1.15,2013-05-20 22:05:00,
2013-05-20 16:15:00,61.3,32.7,29.86,South,178,5.0,8.0,34,0.00,,,0.00,415,Wunderground v.1.15,2013-05-20 22:15:00,
2013-05-20 16:20:00,61.6,32.9,29.86,SW,222,3.0,3.0,34,0.00,,,0.00,434,Wunderground v.1.15,2013-05-20 22:20:00,
2013-05-20 16:30:00,62.5,34.5,29.87,SSW,210,2.0,8.0,35,0.00,,,0.00,329,Wunderground v.1.15,2013-05-20 22:30:00,
2013-05-20 16:35:00,62.2,34.9,29.87,SW,224,3.0,8.0,36,0.00,,,0.00,308,Wunderground v.1.15,2013-05-20 22:35:00,
2013-05-20 16:45:00,62.1,34.1,29.87,SW,233,2.0,8.0,35,0.00,,,0.00,234,Wunderground v.1.15,2013-05-20 22:45:00,
2013-05-20 16:50:00,61.8,33.8,29.87,SW,224,1.0,1.0,35,0.00,,,0.00,255,Wunderground v.1.15,2013-05-20 22:50:00,
2013-05-20 17:00:00,61.7,33.7,29.87,South,169,3.0,8.0,35,0.00,,,0.00,281,Wunderground v.1.15,2013-05-20 23:00:00,
2013-05-20 17:10:00,61.3,33.4,29.88,SSW,212,3.0,8.0,35,0.00,,,0.00,294,Wunderground v.1.15,2013-05-20 23:10:00,
2013-05-20 17:15:00,61.2,34.0,29.88,SW,216,3.0,8.0,36,0.00,,,0.00,325,Wunderground v.1.15,2013-05-20 23:15:00,
2013-05-20 17:20:00,61.3,33.4,29.88,SW,231,3.0,3.0,35,0.00,,,0.00,269,Wunderground v.1.15,2013-05-20 23:20:00,
2013-05-20 17:30:00,61.6,32.9,29.88,SW,222,1.0,1.0,34,0.00,,,0.00,209,Wunderground v.1.15,2013-05-20 23:30:00,
2013-05-20 17:40:00,60.9,35.8,29.88,SSW,197,2.0,2.0,39,0.00,,,0.00,185,Wunderground v.1.15,2013-05-20 23:40:00,
2013-05-20 17:50:00,60.9,35.8,29.88,SSW,201,1.0,1.0,39,0.00,,,0.00,195,Wunderground v.1.15,2013-05-20 23:50:00,
2013-05-20 17:55:00,61.0,34.5,29.89,SW,226,1.0,2.0,37,0.00,,,0.00,185,Wunderground v.1.15,2013-05-20 23:55:00,
2013-05-20 18:05:00,60.8,34.3,29.88,SW,221,1.0,8.0,37,0.00,,,0.00,186,Wunderground v.1.15,2013-05-21 00:05:00,
2013-05-20 18:15:00,60.7,35.6,29.88,SW,225,4.0,4.0,39,0.00,,,0.00,162,Wunderground v.1.15,2013-05-21 00:15:00,
2013-05-20 18:25:00,60.5,34.1,29.88,SW,224,3.0,4.0,37,0.00,,,0.00,125,Wunderground v.1.15,2013-05-21 00:25:00,
2013-05-20 18:30:00,60.6,33.5,29.88,SW,220,4.0,8.0,36,0.00,,,0.00,111,Wunderground v.1.15,2013-05-21 00:30:00,
2013-05-20 18:40:00,60.5,33.4,29.88,SW,216,5.0,5.0,36,0.00,,,0.00,84,Wunderground v.1.15,2013-05-21 00:40:00,
2013-05-20 18:50:00,60.5,35.4,29.88,SW,214,2.0,2.0,39,0.00,,,0.00,88,Wunderground v.1.15,2013-05-21 00:50:00,
2013-05-20 19:00:00,60.7,33.6,29.88,SW,216,0.0,4.0,36,0.00,,,0.00,77,Wunderground v.1.15,2013-05-21 01:00:00,
2013-05-20 19:10:00,60.6,33.5,29.88,SSW,212,2.0,2.0,36,0.00,,,0.00,81,Wunderground v.1.15,2013-05-21 01:10:00,
2013-05-20 19:20:00,60.4,34.7,29.89,SSW,204,2.0,2.0,38,0.00,,,0.00,60,Wunderground v.1.15,2013-05-21 01:20:00,
2013-05-20 19:30:00,59.5,33.9,29.89,WSW,255,3.0,3.0,38,0.00,,,0.00,63,Wunderground v.1.15,2013-05-21 01:30:00,
2013-05-20 19:40:00,59.2,34.9,29.90,SSW,212,0.0,4.0,40,0.00,,,0.00,42,Wunderground v.1.15,2013-05-21 01:40:00,
2013-05-20 19:50:00,59.4,35.7,29.90,SW,222,0.0,4.0,41,0.00,,,0.00,39,Wunderground v.1.15,2013-05-21 01:50:00,
2013-05-20 20:00:00,59.4,33.1,29.90,WNW,285,0.0,5.0,37,0.00,,,0.00,19,Wunderground v.1.15,2013-05-21 02:00:00,
2013-05-20 20:05:00,59.2,34.9,29.90,SSE,162,0.0,5.0,40,0.00,,,0.00,14,Wunderground v.1.15,2013-05-21 02:05:00,
2013-05-20 20:10:00,58.7,36.2,29.91,NNE,12,0.0,4.0,43,0.00,,,0.00,9,Wunderground v.1.15,2013-05-21 02:10:00,
2013-05-20 20:20:00,57.8,35.4,29.91,NE,50,1.0,4.0,43,0.00,,,0.00,0,Wunderground v.1.15,2013-05-21 02:20:00,
2013-05-20 20:25:00,57.6,35.8,29.91,NE,56,1.0,4.0,44,0.00,,,0.00,0,Wunderground v.1.15,2013-05-21 02:25:00,
2013-05-20 20:35:00,57.3,34.4,29.91,NNW,347,0.0,4.0,42,0.00,,,0.00,0,Wunderground v.1.15,2013-05-21 02:35:00,
2013-05-20 20:45:00,56.6,34.3,29.92,North,359,1.0,4.0,43,0.00,,,0.00,0,Wunderground v.1.15,2013-05-21 02:45:00,
2013-05-20 20:50:00,56.4,34.2,29.92,North,359,1.0,1.0,43,0.00,,,0.00,0,Wunderground v.1.15,2013-05-21 02:50:00,
2013-05-20 21:00:00,55.9,34.8,29.91,North,359,0.0,4.0,45,0.00,,,0.00,0,Wunderground v.1.15,2013-05-21 03:00:00,
2013-05-20 21:05:00,55.5,33.9,29.92,North,359,0.0,4.0,44,0.00,,,0.00,0,Wunderground v.1.15,2013-05-21 03:05:00,
2013-05-20 21:15:00,55.3,33.7,29.92,North,359,0.0,0.0,44,0.00,,,0.00,0,Wunderground v.1.15,2013-05-21 03:15:00,
2013-05-20 21:25:00,54.9,33.9,29.92,North,359,0.0,0.0,45,0.00,,,0.00,0,Wunderground v.1.15,2013-05-21 03:25:00,
2013-05-20 21:35:00,54.0,34.7,29.93,North,359,1.0,1.0,48,0.00,,,0.00,0,Wunderground v.1.15,2013-05-21 03:35:00,
2013-05-20 21:45:00,53.6,34.9,29.93,ESE,107,0.0,1.0,49,0.00,,,0.00,0,Wunderground v.1.15,2013-05-21 03:45:00,
2013-05-20 21:55:00,52.5,34.4,29.94,ESE,107,0.0,1.0,50,0.00,,,0.00,0,Wunderground v.1.15,2013-05-21 03:55:00,
2013-05-20 22:00:00,52.3,36.1,29.94,East,95,0.0,1.0,54,0.00,,,0.00,0,Wunderground v.1.15,2013-05-21 04:00:00,
2013-05-20 22:05:00,52.1,36.4,29.94,East,95,0.0,1.0,55,0.00,,,0.00,0,Wunderground v.1.15,2013-05-21 04:05:00,
2013-05-20 22:10:00,51.6,35.0,29.95,East,95,0.0,1.0,53,0.00,,,0.00,0,Wunderground v.1.15,2013-05-21 04:10:00,
2013-05-20 22:20:00,50.9,34.4,29.95,East,95,0.0,1.0,53,0.00,,,0.00,0,Wunderground v.1.15,2013-05-21 04:20:00,
2013-05-20 22:25:00,50.7,35.1,29.95,East,95,0.0,1.0,55,0.00,,,0.00,0,Wunderground v.1.15,2013-05-21 04:25:00,
2013-05-20 22:35:00,50.4,35.3,29.95,East,95,0.0,1.0,56,0.00,,,0.00,0,Wunderground v.1.15,2013-05-21 04:35:00,
2013-05-20 22:45:00,49.8,34.7,29.95,East,95,0.0,1.0,56,0.00,,,0.00,0,Wunderground v.1.15,2013-05-21 04:45:00,
2013-05-20 22:55:00,49.2,34.6,29.96,East,95,0.0,1.0,57,0.00,,,0.00,0,Wunderground v.1.15,2013-05-21 04:55:00,
2013-05-20 23:00:00,49.0,34.9,29.96,East,95,0.0,1.0,58,0.00,,,0.00,0,Wunderground v.1.15,2013-05-21 05:00:00,
2013-05-20 23:10:00,48.7,35.4,29.96,East,95,0.0,1.0,60,0.00,,,0.00,0,Wunderground v.1.15,2013-05-21 05:10:00,
2013-05-20 23:20:00,48.7,35.0,29.96,East,95,0.0,1.0,59,0.00,,,0.00,0,Wunderground v.1.15,2013-05-21 05:20:00,
2013-05-20 23:30:00,49.5,35.3,29.96,NE,51,2.0,5.0,58,0.00,,,0.00,0,Wunderground v.1.15,2013-05-21 05:30:00,
2013-05-20 23:35:00,49.8,34.7,29.96,NE,53,3.0,5.0,56,0.00,,,0.00,0,Wunderground v.1.15,2013-05-21 05:35:00,
2013-05-20 23:45:00,50.4,35.7,29.96,ENE,62,2.0,4.0,57,0.00,,,0.00,0,Wunderground v.1.15,2013-05-21 05:45:00,
2013-05-20 23:50:00,50.2,35.5,29.96,East,95,2.0,2.0,57,0.00,,,0.00,0,Wunderground v.1.15,2013-05-21 05:50:00,
2013-05-20 23:55:00,49.9,35.7,29.96,East,95,2.0,2.0,58,0.00,,,0.00,0,Wunderground v.1.15,2013-05-21 05:55:00,